Fort Dodge Regional Airport
KFOD : now visible

Airfield :











YOU CAN JOIN US ON...

 
LOGIN :

Register | Disclaimer

   EN    FR    IT 

 









Legend :    VFR   Marginal VFR   IFR   Intensive IFR   Very Intensive IFR
Visi :
Ceiling :
>= 8 km
>= 3000ft
5 to 8 km
1000 to 3000 ft
1500m to 5 km
500 to 1000 ft
800 to 1500m
200 to 500 ft
< 800m
< 200 ft
Symbols :   Thunderstorms  Fog  Heavy snow  Heavy precipitations  Wind > 20 kt






- Airport Elevation : 1156 ft
- IATA code : FOD


KFOD - Fort Dodge Regional

CURRENT METAR :
  • 281156Z AUTO 15004KT 10SM CLR M05/M06 A2977 RMK AO2 SLP112 T10501061 11050 21094 58016 FZRANO

EXPIRED METARs :
  • 281056Z AUTO 00000KT 10SM CLR M07/M08 A2979 RMK AO2 SLP116 T10671078 FZRANO
  • 280956Z AUTO 00000KT 10SM CLR M08/M09 A2981 RMK AO2 SLP123 T10781094 FZRANO

TAF KFOD
Valid from the 28 at 12:00 until the 29 at 12:00 UTC


281128Z 2812/2912 16003KT P6SM SKC
FM281500 17012G20KT P6SM SCT090
FM282300 19009KT P6SM BKN120
FM290800 07005KT P6SM -RA OVC030
FM291100 05007KT P6SM -RA OVC016
KZMP FIR / North America



MET'MAP, your aeronautical weather chart ! - Copyright ORBIFLY December 2007 - Disclaimer

ORBIFLY MET'MAP TEAM :

Programming & Development : Alexandra Zaïnal
Original concept : Baudouin d'Aumeries
Technical & hardware support : Manuel Goepfert
Assistance : Marc-Olivier Méhu




SOURCES & CREDITS :

   NOAA       Earth
Advisory